sensor_id;sensor_type;location;lat;lon;timestamp;temperature;humidity
4107;DHT22;21906;50.812;7.132;2023-07-16T00:01:31;22.90;59.70
4107;DHT22;21906;50.812;7.132;2023-07-16T00:03:56;22.70;59.80
4107;DHT22;21906;50.812;7.132;2023-07-16T00:06:22;22.70;60.00
4107;DHT22;21906;50.812;7.132;2023-07-16T00:08:48;22.70;60.10
4107;DHT22;21906;50.812;7.132;2023-07-16T00:11:14;22.60;60.10
4107;DHT22;21906;50.812;7.132;2023-07-16T00:13:39;22.60;59.90
4107;DHT22;21906;50.812;7.132;2023-07-16T00:16:11;22.60;59.70
4107;DHT22;21906;50.812;7.132;2023-07-16T00:18:37;22.50;59.70
4107;DHT22;21906;50.812;7.132;2023-07-16T00:21:03;22.50;59.80
4107;DHT22;21906;50.812;7.132;2023-07-16T00:23:28;22.50;59.80
4107;DHT22;21906;50.812;7.132;2023-07-16T00:25:54;22.50;59.90
4107;DHT22;21906;50.812;7.132;2023-07-16T00:28:20;22.50;59.90
4107;DHT22;21906;50.812;7.132;2023-07-16T00:30:45;22.50;59.90
4107;DHT22;21906;50.812;7.132;2023-07-16T00:33:11;22.40;60.00
4107;DHT22;21906;50.812;7.132;2023-07-16T00:35:37;22.30;60.40
4107;DHT22;21906;50.812;7.132;2023-07-16T00:38:02;22.30;60.30
4107;DHT22;21906;50.812;7.132;2023-07-16T00:40:28;22.30;60.50
4107;DHT22;21906;50.812;7.132;2023-07-16T00:42:54;22.30;60.40
4107;DHT22;21906;50.812;7.132;2023-07-16T00:45:19;22.30;60.40
4107;DHT22;21906;50.812;7.132;2023-07-16T00:47:45;22.30;60.40
4107;DHT22;21906;50.812;7.132;2023-07-16T00:50:11;22.30;60.10
4107;DHT22;21906;50.812;7.132;2023-07-16T00:52:38;22.30;60.00
4107;DHT22;21906;50.812;7.132;2023-07-16T00:55:06;22.30;60.20
4107;DHT22;21906;50.812;7.132;2023-07-16T00:57:32;22.30;60.20
4107;DHT22;21906;50.812;7.132;2023-07-16T00:59:58;22.30;60.10
4107;DHT22;21906;50.812;7.132;2023-07-16T01:02:24;22.30;60.40
4107;DHT22;21906;50.812;7.132;2023-07-16T01:04:49;22.20;60.40
4107;DHT22;21906;50.812;7.132;2023-07-16T01:07:16;22.10;60.60
4107;DHT22;21906;50.812;7.132;2023-07-16T01:09:44;22.10;60.60
4107;DHT22;21906;50.812;7.132;2023-07-16T01:12:10;22.10;60.40
4107;DHT22;21906;50.812;7.132;2023-07-16T01:14:37;22.10;60.60
4107;DHT22;21906;50.812;7.132;2023-07-16T01:17:07;22.00;60.80
4107;DHT22;21906;50.812;7.132;2023-07-16T01:19:34;21.90;60.90
4107;DHT22;21906;50.812;7.132;2023-07-16T01:30:07;21.90;61.40
4107;DHT22;21906;50.812;7.132;2023-07-16T01:32:36;21.80;61.60
4107;DHT22;21906;50.812;7.132;2023-07-16T01:35:04;21.80;61.60
4107;DHT22;21906;50.812;7.132;2023-07-16T01:37:31;21.80;61.80
4107;DHT22;21906;50.812;7.132;2023-07-16T01:45:12;21.50;62.20
4107;DHT22;21906;50.812;7.132;2023-07-16T01:50:25;21.50;62.00
4107;DHT22;21906;50.812;7.132;2023-07-16T01:52:51;21.50;61.80
4107;DHT22;21906;50.812;7.132;2023-07-16T01:55:17;21.60;61.70
4107;DHT22;21906;50.812;7.132;2023-07-16T01:57:42;21.60;61.60
4107;DHT22;21906;50.812;7.132;2023-07-16T02:00:08;21.50;61.90
4107;DHT22;21906;50.812;7.132;2023-07-16T02:02:34;21.50;61.70
4107;DHT22;21906;50.812;7.132;2023-07-16T02:04:59;21.50;61.90
4107;DHT22;21906;50.812;7.132;2023-07-16T02:07:25;21.40;61.90
4107;DHT22;21906;50.812;7.132;2023-07-16T02:09:51;21.40;61.90
4107;DHT22;21906;50.812;7.132;2023-07-16T02:12:16;21.40;62.20
4107;DHT22;21906;50.812;7.132;2023-07-16T02:14:42;21.40;61.90
4107;DHT22;21906;50.812;7.132;2023-07-16T02:17:08;21.40;61.80
4107;DHT22;21906;50.812;7.132;2023-07-16T02:19:33;21.30;61.90
4107;DHT22;21906;50.812;7.132;2023-07-16T02:21:59;21.30;61.90
4107;DHT22;21906;50.812;7.132;2023-07-16T02:24:25;21.20;61.80
4107;DHT22;21906;50.812;7.132;2023-07-16T02:26:50;21.20;61.70
4107;DHT22;21906;50.812;7.132;2023-07-16T02:29:16;21.20;61.40
4107;DHT22;21906;50.812;7.132;2023-07-16T02:31:41;21.20;61.40
4107;DHT22;21906;50.812;7.132;2023-07-16T02:34:11;21.20;61.30
4107;DHT22;21906;50.812;7.132;2023-07-16T02:36:37;21.10;61.50
4107;DHT22;21906;50.812;7.132;2023-07-16T02:39:03;21.00;61.20
4107;DHT22;21906;50.812;7.132;2023-07-16T02:41:28;21.10;61.30
4107;DHT22;21906;50.812;7.132;2023-07-16T02:44:03;20.90;61.50
4107;DHT22;21906;50.812;7.132;2023-07-16T02:46:29;20.90;61.50
4107;DHT22;21906;50.812;7.132;2023-07-16T02:48:55;20.90;61.50
4107;DHT22;21906;50.812;7.132;2023-07-16T02:51:20;20.90;61.30
4107;DHT22;21906;50.812;7.132;2023-07-16T02:53:46;20.90;61.00
4107;DHT22;21906;50.812;7.132;2023-07-16T02:56:11;20.90;61.10
4107;DHT22;21906;50.812;7.132;2023-07-16T02:58:37;21.00;60.80
4107;DHT22;21906;50.812;7.132;2023-07-16T03:01:03;21.00;60.70
4107;DHT22;21906;50.812;7.132;2023-07-16T03:03:29;21.00;60.60
4107;DHT22;21906;50.812;7.132;2023-07-16T03:05:54;20.90;60.60
4107;DHT22;21906;50.812;7.132;2023-07-16T03:08:20;20.90;60.70
4107;DHT22;21906;50.812;7.132;2023-07-16T03:10:46;20.90;60.70
4107;DHT22;21906;50.812;7.132;2023-07-16T03:13:11;20.90;60.60
4107;DHT22;21906;50.812;7.132;2023-07-16T03:15:37;20.90;60.40
4107;DHT22;21906;50.812;7.132;2023-07-16T03:18:03;20.90;60.30
4107;DHT22;21906;50.812;7.132;2023-07-16T03:20:28;20.90;60.20
4107;DHT22;21906;50.812;7.132;2023-07-16T03:22:54;20.90;60.30
4107;DHT22;21906;50.812;7.132;2023-07-16T03:25:19;21.00;60.20
4107;DHT22;21906;50.812;7.132;2023-07-16T03:27:45;20.90;60.00
4107;DHT22;21906;50.812;7.132;2023-07-16T03:30:11;20.90;60.10
4107;DHT22;21906;50.812;7.132;2023-07-16T03:32:36;20.90;60.50
4107;DHT22;21906;50.812;7.132;2023-07-16T03:35:02;20.90;60.40
4107;DHT22;21906;50.812;7.132;2023-07-16T03:37:28;20.90;60.40
4107;DHT22;21906;50.812;7.132;2023-07-16T03:39:53;20.80;60.50
4107;DHT22;21906;50.812;7.132;2023-07-16T03:42:19;20.80;60.50
4107;DHT22;21906;50.812;7.132;2023-07-16T03:44:45;20.90;60.40
4107;DHT22;21906;50.812;7.132;2023-07-16T03:47:10;20.80;60.30
4107;DHT22;21906;50.812;7.132;2023-07-16T03:49:36;20.80;60.40
4107;DHT22;21906;50.812;7.132;2023-07-16T03:52:02;20.70;60.40
4107;DHT22;21906;50.812;7.132;2023-07-16T03:54:27;20.70;60.60
4107;DHT22;21906;50.812;7.132;2023-07-16T03:56:53;20.80;60.50
4107;DHT22;21906;50.812;7.132;2023-07-16T03:59:18;20.70;60.60
4107;DHT22;21906;50.812;7.132;2023-07-16T04:01:44;20.70;60.60
4107;DHT22;21906;50.812;7.132;2023-07-16T04:04:10;20.70;60.40
4107;DHT22;21906;50.812;7.132;2023-07-16T04:06:35;20.70;60.20
4107;DHT22;21906;50.812;7.132;2023-07-16T04:09:01;20.70;60.30
4107;DHT22;21906;50.812;7.132;2023-07-16T04:11:27;20.70;60.10
4107;DHT22;21906;50.812;7.132;2023-07-16T04:13:53;20.80;60.20
4107;DHT22;21906;50.812;7.132;2023-07-16T04:16:18;20.80;60.20
4107;DHT22;21906;50.812;7.132;2023-07-16T04:18:44;20.80;60.20
4107;DHT22;21906;50.812;7.132;2023-07-16T04:21:10;20.80;60.10
4107;DHT22;21906;50.812;7.132;2023-07-16T04:23:35;20.80;60.20
4107;DHT22;21906;50.812;7.132;2023-07-16T04:26:01;20.80;60.30
4107;DHT22;21906;50.812;7.132;2023-07-16T04:28:27;20.70;60.40
4107;DHT22;21906;50.812;7.132;2023-07-16T04:30:52;20.70;60.30
4107;DHT22;21906;50.812;7.132;2023-07-16T04:33:18;20.70;60.20
4107;DHT22;21906;50.812;7.132;2023-07-16T04:35:44;20.60;60.30
4107;DHT22;21906;50.812;7.132;2023-07-16T04:38:10;20.80;60.00
4107;DHT22;21906;50.812;7.132;2023-07-16T04:40:35;20.80;60.10
4107;DHT22;21906;50.812;7.132;2023-07-16T04:43:01;20.80;60.20
4107;DHT22;21906;50.812;7.132;2023-07-16T04:45:27;20.80;60.00
4107;DHT22;21906;50.812;7.132;2023-07-16T04:47:52;20.90;59.80
4107;DHT22;21906;50.812;7.132;2023-07-16T04:50:18;20.80;59.60
4107;DHT22;21906;50.812;7.132;2023-07-16T04:52:43;20.80;59.60
4107;DHT22;21906;50.812;7.132;2023-07-16T04:55:09;20.80;59.70
4107;DHT22;21906;50.812;7.132;2023-07-16T04:57:35;20.80;59.60
4107;DHT22;21906;50.812;7.132;2023-07-16T05:00:01;20.80;59.20
4107;DHT22;21906;50.812;7.132;2023-07-16T05:02:26;20.80;59.30
4107;DHT22;21906;50.812;7.132;2023-07-16T05:04:52;20.90;59.60
4107;DHT22;21906;50.812;7.132;2023-07-16T05:07:17;20.90;59.50
4107;DHT22;21906;50.812;7.132;2023-07-16T05:09:43;20.90;58.50
4107;DHT22;21906;50.812;7.132;2023-07-16T05:12:09;20.90;58.60
4107;DHT22;21906;50.812;7.132;2023-07-16T05:14:45;20.90;58.70
4107;DHT22;21906;50.812;7.132;2023-07-16T05:17:12;20.90;58.30
4107;DHT22;21906;50.812;7.132;2023-07-16T05:19:37;20.90;58.70
4107;DHT22;21906;50.812;7.132;2023-07-16T05:22:03;20.90;58.50
4107;DHT22;21906;50.812;7.132;2023-07-16T05:24:29;21.00;58.10
4107;DHT22;21906;50.812;7.132;2023-07-16T05:26:55;21.00;57.90
4107;DHT22;21906;50.812;7.132;2023-07-16T05:29:21;21.00;57.60
4107;DHT22;21906;50.812;7.132;2023-07-16T05:31:46;21.00;57.40
4107;DHT22;21906;50.812;7.132;2023-07-16T05:34:12;21.00;57.70
4107;DHT22;21906;50.812;7.132;2023-07-16T05:36:39;21.00;57.20
4107;DHT22;21906;50.812;7.132;2023-07-16T05:39:04;20.90;57.10
4107;DHT22;21906;50.812;7.132;2023-07-16T05:41:30;20.90;57.10
4107;DHT22;21906;50.812;7.132;2023-07-16T05:43:56;20.90;56.90
4107;DHT22;21906;50.812;7.132;2023-07-16T05:46:21;20.90;56.60
4107;DHT22;21906;50.812;7.132;2023-07-16T05:48:47;20.90;56.60
4107;DHT22;21906;50.812;7.132;2023-07-16T05:51:12;20.90;56.40
4107;DHT22;21906;50.812;7.132;2023-07-16T05:53:38;20.90;56.20
4107;DHT22;21906;50.812;7.132;2023-07-16T05:56:04;20.80;56.50
4107;DHT22;21906;50.812;7.132;2023-07-16T05:58:29;20.90;55.90
4107;DHT22;21906;50.812;7.132;2023-07-16T06:00:55;20.90;55.40
4107;DHT22;21906;50.812;7.132;2023-07-16T06:03:20;20.90;55.20
4107;DHT22;21906;50.812;7.132;2023-07-16T06:05:46;20.80;55.00
4107;DHT22;21906;50.812;7.132;2023-07-16T06:08:12;20.80;54.20
4107;DHT22;21906;50.812;7.132;2023-07-16T06:10:38;20.70;53.90
4107;DHT22;21906;50.812;7.132;2023-07-16T06:13:04;20.80;53.90
4107;DHT22;21906;50.812;7.132;2023-07-16T06:15:30;20.80;54.30
4107;DHT22;21906;50.812;7.132;2023-07-16T06:17:55;20.90;54.20
4107;DHT22;21906;50.812;7.132;2023-07-16T06:20:21;20.80;53.90
4107;DHT22;21906;50.812;7.132;2023-07-16T06:22:46;20.80;54.20
4107;DHT22;21906;50.812;7.132;2023-07-16T06:25:12;20.90;52.90
4107;DHT22;21906;50.812;7.132;2023-07-16T06:27:38;20.90;53.30
4107;DHT22;21906;50.812;7.132;2023-07-16T06:30:05;21.00;53.50
4107;DHT22;21906;50.812;7.132;2023-07-16T06:32:31;20.90;53.50
4107;DHT22;21906;50.812;7.132;2023-07-16T06:34:57;20.90;53.00
4107;DHT22;21906;50.812;7.132;2023-07-16T06:37:22;21.00;52.90
4107;DHT22;21906;50.812;7.132;2023-07-16T06:39:49;21.10;52.40
4107;DHT22;21906;50.812;7.132;2023-07-16T06:42:15;21.10;51.80
4107;DHT22;21906;50.812;7.132;2023-07-16T06:44:41;21.10;51.50
4107;DHT22;21906;50.812;7.132;2023-07-16T06:47:07;21.10;51.70
4107;DHT22;21906;50.812;7.132;2023-07-16T06:49:32;21.10;52.50
4107;DHT22;21906;50.812;7.132;2023-07-16T06:52:00;21.10;52.30
4107;DHT22;21906;50.812;7.132;2023-07-16T06:54:26;21.10;51.90
4107;DHT22;21906;50.812;7.132;2023-07-16T06:56:52;21.10;50.80
4107;DHT22;21906;50.812;7.132;2023-07-16T06:59:18;21.10;50.80
4107;DHT22;21906;50.812;7.132;2023-07-16T07:01:43;21.20;50.90
4107;DHT22;21906;50.812;7.132;2023-07-16T07:04:09;21.30;50.80
4107;DHT22;21906;50.812;7.132;2023-07-16T07:06:35;21.30;50.40
4107;DHT22;21906;50.812;7.132;2023-07-16T07:09:00;21.40;50.30
4107;DHT22;21906;50.812;7.132;2023-07-16T07:11:26;21.40;49.30
4107;DHT22;21906;50.812;7.132;2023-07-16T07:13:52;21.40;49.40
4107;DHT22;21906;50.812;7.132;2023-07-16T07:16:18;21.40;49.10
4107;DHT22;21906;50.812;7.132;2023-07-16T07:18:44;21.40;48.80
4107;DHT22;21906;50.812;7.132;2023-07-16T07:21:10;21.40;48.20
4107;DHT22;21906;50.812;7.132;2023-07-16T07:23:36;21.50;48.40
4107;DHT22;21906;50.812;7.132;2023-07-16T07:26:01;21.50;49.10
4107;DHT22;21906;50.812;7.132;2023-07-16T07:28:28;21.60;48.10
4107;DHT22;21906;50.812;7.132;2023-07-16T07:30:54;21.60;48.00
4107;DHT22;21906;50.812;7.132;2023-07-16T07:33:19;21.60;48.20
4107;DHT22;21906;50.812;7.132;2023-07-16T07:35:45;21.70;48.20
4107;DHT22;21906;50.812;7.132;2023-07-16T07:38:11;21.70;47.30
4107;DHT22;21906;50.812;7.132;2023-07-16T07:40:37;21.60;46.70
4107;DHT22;21906;50.812;7.132;2023-07-16T07:43:02;21.60;47.30
4107;DHT22;21906;50.812;7.132;2023-07-16T07:45:28;21.50;47.20
4107;DHT22;21906;50.812;7.132;2023-07-16T07:47:54;21.50;46.90
4107;DHT22;21906;50.812;7.132;2023-07-16T07:50:19;21.60;46.40
4107;DHT22;21906;50.812;7.132;2023-07-16T07:52:45;21.80;46.40
4107;DHT22;21906;50.812;7.132;2023-07-16T07:55:11;21.80;45.30
4107;DHT22;21906;50.812;7.132;2023-07-16T07:57:36;21.90;45.30
4107;DHT22;21906;50.812;7.132;2023-07-16T08:00:03;21.80;45.70
4107;DHT22;21906;50.812;7.132;2023-07-16T08:02:29;21.80;45.70
4107;DHT22;21906;50.812;7.132;2023-07-16T08:04:55;21.90;45.80
4107;DHT22;21906;50.812;7.132;2023-07-16T08:07:21;21.90;45.30
4107;DHT22;21906;50.812;7.132;2023-07-16T08:09:47;22.00;45.00
4107;DHT22;21906;50.812;7.132;2023-07-16T08:12:14;22.10;43.90
4107;DHT22;21906;50.812;7.132;2023-07-16T08:14:40;22.10;43.90
4107;DHT22;21906;50.812;7.132;2023-07-16T08:17:07;22.10;44.00
4107;DHT22;21906;50.812;7.132;2023-07-16T08:19:32;22.10;44.50
4107;DHT22;21906;50.812;7.132;2023-07-16T08:21:58;22.20;43.80
4107;DHT22;21906;50.812;7.132;2023-07-16T08:24:25;22.20;44.50
4107;DHT22;21906;50.812;7.132;2023-07-16T08:26:51;22.30;43.00
4107;DHT22;21906;50.812;7.132;2023-07-16T08:29:17;22.30;43.20
4107;DHT22;21906;50.812;7.132;2023-07-16T08:31:43;22.30;43.40
4107;DHT22;21906;50.812;7.132;2023-07-16T08:34:09;22.30;43.40
4107;DHT22;21906;50.812;7.132;2023-07-16T08:36:35;22.30;43.50
4107;DHT22;21906;50.812;7.132;2023-07-16T08:39:01;22.40;43.10
4107;DHT22;21906;50.812;7.132;2023-07-16T08:41:27;22.60;42.90
4107;DHT22;21906;50.812;7.132;2023-07-16T08:43:54;22.50;42.80
4107;DHT22;21906;50.812;7.132;2023-07-16T08:46:20;22.60;42.20
4107;DHT22;21906;50.812;7.132;2023-07-16T08:48:46;22.60;42.10
4107;DHT22;21906;50.812;7.132;2023-07-16T08:51:15;22.60;42.10
4107;DHT22;21906;50.812;7.132;2023-07-16T08:53:41;22.60;42.10
4107;DHT22;21906;50.812;7.132;2023-07-16T08:56:07;22.70;41.00
4107;DHT22;21906;50.812;7.132;2023-07-16T08:58:33;22.60;41.50
4107;DHT22;21906;50.812;7.132;2023-07-16T09:01:00;22.70;41.80
4107;DHT22;21906;50.812;7.132;2023-07-16T09:03:26;22.90;41.90
4107;DHT22;21906;50.812;7.132;2023-07-16T09:05:54;22.90;41.50
4107;DHT22;21906;50.812;7.132;2023-07-16T09:08:19;22.80;42.10
4107;DHT22;21906;50.812;7.132;2023-07-16T09:10:56;22.90;42.40
4107;DHT22;21906;50.812;7.132;2023-07-16T09:13:23;23.00;41.70
4107;DHT22;21906;50.812;7.132;2023-07-16T09:15:54;23.10;41.30
4107;DHT22;21906;50.812;7.132;2023-07-16T09:18:22;23.10;41.20
4107;DHT22;21906;50.812;7.132;2023-07-16T09:20:54;23.20;41.50
4107;DHT22;21906;50.812;7.132;2023-07-16T09:23:20;23.20;41.20
4107;DHT22;21906;50.812;7.132;2023-07-16T09:25:46;23.10;41.30
4107;DHT22;21906;50.812;7.132;2023-07-16T09:28:12;23.10;41.80
4107;DHT22;21906;50.812;7.132;2023-07-16T09:30:38;23.10;41.50
4107;DHT22;21906;50.812;7.132;2023-07-16T09:33:17;23.20;41.60
4107;DHT22;21906;50.812;7.132;2023-07-16T09:35:44;23.30;41.70
4107;DHT22;21906;50.812;7.132;2023-07-16T09:38:10;23.40;42.20
4107;DHT22;21906;50.812;7.132;2023-07-16T09:40:37;23.60;40.90
4107;DHT22;21906;50.812;7.132;2023-07-16T09:43:03;23.60;40.10
4107;DHT22;21906;50.812;7.132;2023-07-16T09:45:30;23.60;40.30
4107;DHT22;21906;50.812;7.132;2023-07-16T09:47:55;23.70;40.70
4107;DHT22;21906;50.812;7.132;2023-07-16T09:50:28;23.70;40.60
4107;DHT22;21906;50.812;7.132;2023-07-16T09:52:56;23.70;40.70
4107;DHT22;21906;50.812;7.132;2023-07-16T09:55:23;23.60;41.30
4107;DHT22;21906;50.812;7.132;2023-07-16T09:57:51;23.60;39.70
4107;DHT22;21906;50.812;7.132;2023-07-16T10:00:18;23.70;40.10
4107;DHT22;21906;50.812;7.132;2023-07-16T10:02:46;23.90;39.90
4107;DHT22;21906;50.812;7.132;2023-07-16T10:05:16;23.90;40.20
4107;DHT22;21906;50.812;7.132;2023-07-16T10:07:42;24.00;40.10
4107;DHT22;21906;50.812;7.132;2023-07-16T10:10:11;24.10;39.80
4107;DHT22;21906;50.812;7.132;2023-07-16T10:12:38;24.10;38.60
4107;DHT22;21906;50.812;7.132;2023-07-16T10:15:06;24.20;38.80
4107;DHT22;21906;50.812;7.132;2023-07-16T10:17:32;24.20;38.90
4107;DHT22;21906;50.812;7.132;2023-07-16T10:20:08;24.40;38.60
4107;DHT22;21906;50.812;7.132;2023-07-16T10:22:46;24.40;37.30
4107;DHT22;21906;50.812;7.132;2023-07-16T10:27:49;24.40;38.10
4107;DHT22;21906;50.812;7.132;2023-07-16T10:30:16;24.40;38.10
4107;DHT22;21906;50.812;7.132;2023-07-16T10:32:42;24.40;38.30
4107;DHT22;21906;50.812;7.132;2023-07-16T10:35:08;24.50;37.90
4107;DHT22;21906;50.812;7.132;2023-07-16T10:37:35;24.70;37.50
4107;DHT22;21906;50.812;7.132;2023-07-16T10:40:02;24.70;37.50
4107;DHT22;21906;50.812;7.132;2023-07-16T10:42:32;24.90;37.60
4107;DHT22;21906;50.812;7.132;2023-07-16T10:45:03;24.90;37.40
4107;DHT22;21906;50.812;7.132;2023-07-16T10:47:31;24.90;37.80
4107;DHT22;21906;50.812;7.132;2023-07-16T10:49:57;24.90;37.20
4107;DHT22;21906;50.812;7.132;2023-07-16T10:52:24;24.90;37.30
4107;DHT22;21906;50.812;7.132;2023-07-16T10:54:53;25.00;37.00
4107;DHT22;21906;50.812;7.132;2023-07-16T10:57:21;25.10;36.80
4107;DHT22;21906;50.812;7.132;2023-07-16T10:59:47;25.20;36.20
4107;DHT22;21906;50.812;7.132;2023-07-16T11:02:16;25.10;36.90
4107;DHT22;21906;50.812;7.132;2023-07-16T11:04:46;25.20;36.80
4107;DHT22;21906;50.812;7.132;2023-07-16T11:07:13;25.30;36.60
4107;DHT22;21906;50.812;7.132;2023-07-16T11:09:47;25.40;36.10
4107;DHT22;21906;50.812;7.132;2023-07-16T11:12:16;25.60;36.20
4107;DHT22;21906;50.812;7.132;2023-07-16T11:14:47;25.80;35.60
4107;DHT22;21906;50.812;7.132;2023-07-16T11:17:13;25.60;35.60
4107;DHT22;21906;50.812;7.132;2023-07-16T11:19:39;25.50;36.10
4107;DHT22;21906;50.812;7.132;2023-07-16T11:22:07;25.50;35.90
4107;DHT22;21906;50.812;7.132;2023-07-16T11:24:46;25.50;35.40
4107;DHT22;21906;50.812;7.132;2023-07-16T11:27:23;25.40;35.60
4107;DHT22;21906;50.812;7.132;2023-07-16T11:29:57;25.60;34.60
4107;DHT22;21906;50.812;7.132;2023-07-16T11:32:46;25.40;35.20
4107;DHT22;21906;50.812;7.132;2023-07-16T11:35:18;25.50;35.60
4107;DHT22;21906;50.812;7.132;2023-07-16T11:37:45;25.60;35.80
4107;DHT22;21906;50.812;7.132;2023-07-16T11:40:18;25.40;35.70
4107;DHT22;21906;50.812;7.132;2023-07-16T11:42:44;25.50;35.90
4107;DHT22;21906;50.812;7.132;2023-07-16T11:45:24;25.40;35.40
4107;DHT22;21906;50.812;7.132;2023-07-16T11:47:53;25.50;35.80
4107;DHT22;21906;50.812;7.132;2023-07-16T11:50:19;25.70;36.00
4107;DHT22;21906;50.812;7.132;2023-07-16T11:52:52;25.80;35.20
4107;DHT22;21906;50.812;7.132;2023-07-16T11:55:19;25.80;35.50
4107;DHT22;21906;50.812;7.132;2023-07-16T11:57:45;25.60;35.60
4107;DHT22;21906;50.812;7.132;2023-07-16T12:00:10;25.80;35.50
4107;DHT22;21906;50.812;7.132;2023-07-16T12:02:37;25.90;34.40
4107;DHT22;21906;50.812;7.132;2023-07-16T12:05:03;25.80;34.90
4107;DHT22;21906;50.812;7.132;2023-07-16T12:07:34;25.90;35.60
4107;DHT22;21906;50.812;7.132;2023-07-16T12:10:01;25.90;35.90
4107;DHT22;21906;50.812;7.132;2023-07-16T12:12:27;25.90;35.30
4107;DHT22;21906;50.812;7.132;2023-07-16T12:14:53;26.20;35.10
4107;DHT22;21906;50.812;7.132;2023-07-16T12:17:18;26.40;35.40
4107;DHT22;21906;50.812;7.132;2023-07-16T12:19:44;26.50;35.80
4107;DHT22;21906;50.812;7.132;2023-07-16T12:22:10;26.50;34.20
4107;DHT22;21906;50.812;7.132;2023-07-16T12:24:36;26.40;34.30
4107;DHT22;21906;50.812;7.132;2023-07-16T12:27:02;26.10;34.60
4107;DHT22;21906;50.812;7.132;2023-07-16T12:29:28;25.70;35.30
4107;DHT22;21906;50.812;7.132;2023-07-16T12:31:53;25.70;35.60
4107;DHT22;21906;50.812;7.132;2023-07-16T12:34:19;25.80;36.30
4107;DHT22;21906;50.812;7.132;2023-07-16T12:36:45;25.90;35.90
4107;DHT22;21906;50.812;7.132;2023-07-16T12:39:10;25.80;35.70
4107;DHT22;21906;50.812;7.132;2023-07-16T12:41:36;25.70;35.90
4107;DHT22;21906;50.812;7.132;2023-07-16T12:44:02;25.60;35.60
4107;DHT22;21906;50.812;7.132;2023-07-16T12:46:28;25.60;34.80
4107;DHT22;21906;50.812;7.132;2023-07-16T12:48:53;25.70;35.00
4107;DHT22;21906;50.812;7.132;2023-07-16T12:51:19;25.80;35.40
4107;DHT22;21906;50.812;7.132;2023-07-16T12:53:45;25.70;35.50
4107;DHT22;21906;50.812;7.132;2023-07-16T12:56:11;25.80;35.40
4107;DHT22;21906;50.812;7.132;2023-07-16T12:58:37;25.80;36.10
4107;DHT22;21906;50.812;7.132;2023-07-16T13:01:03;26.00;35.40
4107;DHT22;21906;50.812;7.132;2023-07-16T13:03:28;26.20;35.20
4107;DHT22;21906;50.812;7.132;2023-07-16T13:05:54;26.30;34.00
4107;DHT22;21906;50.812;7.132;2023-07-16T13:08:20;26.30;33.90
4107;DHT22;21906;50.812;7.132;2023-07-16T13:10:46;26.20;33.90
4107;DHT22;21906;50.812;7.132;2023-07-16T13:13:11;26.20;33.60
4107;DHT22;21906;50.812;7.132;2023-07-16T13:15:37;26.20;34.40
4107;DHT22;21906;50.812;7.132;2023-07-16T13:18:03;26.10;35.00
4107;DHT22;21906;50.812;7.132;2023-07-16T13:20:29;26.10;34.90
4107;DHT22;21906;50.812;7.132;2023-07-16T13:22:55;26.10;34.60
4107;DHT22;21906;50.812;7.132;2023-07-16T13:25:21;26.20;34.30
4107;DHT22;21906;50.812;7.132;2023-07-16T13:27:47;26.10;34.30
4107;DHT22;21906;50.812;7.132;2023-07-16T13:30:14;25.90;34.40
4107;DHT22;21906;50.812;7.132;2023-07-16T13:32:40;26.20;34.20
4107;DHT22;21906;50.812;7.132;2023-07-16T13:35:05;26.50;33.60
4107;DHT22;21906;50.812;7.132;2023-07-16T13:37:31;26.50;32.70
4107;DHT22;21906;50.812;7.132;2023-07-16T13:39:57;26.40;33.30
4107;DHT22;21906;50.812;7.132;2023-07-16T13:42:23;26.30;32.90
4107;DHT22;21906;50.812;7.132;2023-07-16T13:44:48;26.40;33.20
4107;DHT22;21906;50.812;7.132;2023-07-16T13:47:14;26.30;33.30
4107;DHT22;21906;50.812;7.132;2023-07-16T13:49:40;26.40;33.80
4107;DHT22;21906;50.812;7.132;2023-07-16T13:52:06;26.40;32.90
4107;DHT22;21906;50.812;7.132;2023-07-16T13:54:32;26.50;32.90
4107;DHT22;21906;50.812;7.132;2023-07-16T13:56:58;26.40;32.70
4107;DHT22;21906;50.812;7.132;2023-07-16T13:59:23;26.50;33.10
4107;DHT22;21906;50.812;7.132;2023-07-16T14:02:01;26.60;33.70
4107;DHT22;21906;50.812;7.132;2023-07-16T14:04:28;27.00;32.80
4107;DHT22;21906;50.812;7.132;2023-07-16T14:06:54;27.20;32.10
4107;DHT22;21906;50.812;7.132;2023-07-16T14:09:20;27.40;32.70
4107;DHT22;21906;50.812;7.132;2023-07-16T14:11:46;27.70;32.00
4107;DHT22;21906;50.812;7.132;2023-07-16T14:14:17;28.00;31.30
4107;DHT22;21906;50.812;7.132;2023-07-16T14:16:43;28.10;31.50
4107;DHT22;21906;50.812;7.132;2023-07-16T14:19:09;27.90;31.30
4107;DHT22;21906;50.812;7.132;2023-07-16T14:21:38;27.90;31.60
4107;DHT22;21906;50.812;7.132;2023-07-16T14:24:04;27.80;32.80
4107;DHT22;21906;50.812;7.132;2023-07-16T14:26:30;28.10;30.70
4107;DHT22;21906;50.812;7.132;2023-07-16T14:28:55;28.20;30.70
4107;DHT22;21906;50.812;7.132;2023-07-16T14:31:21;28.10;30.30
4107;DHT22;21906;50.812;7.132;2023-07-16T14:33:47;28.00;30.70
4107;DHT22;21906;50.812;7.132;2023-07-16T14:36:13;28.00;31.20
4107;DHT22;21906;50.812;7.132;2023-07-16T14:38:39;28.00;31.30
4107;DHT22;21906;50.812;7.132;2023-07-16T14:41:05;28.00;31.40
4107;DHT22;21906;50.812;7.132;2023-07-16T14:43:31;28.00;31.60
4107;DHT22;21906;50.812;7.132;2023-07-16T14:45:57;28.20;32.30
4107;DHT22;21906;50.812;7.132;2023-07-16T14:48:23;28.40;30.70
4107;DHT22;21906;50.812;7.132;2023-07-16T14:50:49;28.70;30.30
4107;DHT22;21906;50.812;7.132;2023-07-16T14:53:18;28.90;30.00
4107;DHT22;21906;50.812;7.132;2023-07-16T14:55:53;28.70;30.30
4107;DHT22;21906;50.812;7.132;2023-07-16T14:58:19;28.90;31.30
4107;DHT22;21906;50.812;7.132;2023-07-16T15:00:46;28.60;30.30
4107;DHT22;21906;50.812;7.132;2023-07-16T15:03:12;28.90;30.20
4107;DHT22;21906;50.812;7.132;2023-07-16T15:05:38;29.00;29.10
4107;DHT22;21906;50.812;7.132;2023-07-16T15:08:04;29.10;29.20
4107;DHT22;21906;50.812;7.132;2023-07-16T15:10:31;29.20;30.10
4107;DHT22;21906;50.812;7.132;2023-07-16T15:12:57;29.70;29.40
4107;DHT22;21906;50.812;7.132;2023-07-16T15:15:23;29.40;28.90
4107;DHT22;21906;50.812;7.132;2023-07-16T15:17:49;29.20;29.70
4107;DHT22;21906;50.812;7.132;2023-07-16T15:20:15;29.00;29.60
4107;DHT22;21906;50.812;7.132;2023-07-16T15:22:41;28.60;30.00
4107;DHT22;21906;50.812;7.132;2023-07-16T15:25:07;28.60;30.20
4107;DHT22;21906;50.812;7.132;2023-07-16T15:27:33;28.60;30.90
4107;DHT22;21906;50.812;7.132;2023-07-16T15:29:59;28.80;30.50
4107;DHT22;21906;50.812;7.132;2023-07-16T15:32:25;28.80;30.40
4107;DHT22;21906;50.812;7.132;2023-07-16T15:34:50;28.90;31.60
4107;DHT22;21906;50.812;7.132;2023-07-16T15:37:17;29.30;29.70
4107;DHT22;21906;50.812;7.132;2023-07-16T15:39:43;29.20;29.60
4107;DHT22;21906;50.812;7.132;2023-07-16T15:42:10;29.30;29.60
4107;DHT22;21906;50.812;7.132;2023-07-16T15:44:36;29.10;29.10
4107;DHT22;21906;50.812;7.132;2023-07-16T15:47:02;28.80;29.80
4107;DHT22;21906;50.812;7.132;2023-07-16T15:49:28;28.60;30.30
4107;DHT22;21906;50.812;7.132;2023-07-16T15:51:54;28.90;30.10
4107;DHT22;21906;50.812;7.132;2023-07-16T15:54:20;29.40;29.60
4107;DHT22;21906;50.812;7.132;2023-07-16T15:56:45;29.70;29.50
4107;DHT22;21906;50.812;7.132;2023-07-16T15:59:12;29.60;29.30